Time;durP1;ratioP1;P1;durP2;ratioP2;P2;SDS_P1;SDS_P2;PMS_P1;PMS_P2;Temp;Humidity;BMP_temperature;BMP_pressure;BME280_temperature;BME280_humidity;BME280_pressure;Samples;Min_cycle;Max_cycle;Signal;HPM_P1;HPM_P2
2022/07/07 00:00:44;;;;;;;3.03;1.50;;;;;;;17.55;78.05;97270.97;5050663;28;20052;-67
2022/07/07 00:03:09;;;;;;;5.45;1.60;;;;;;;17.53;78.77;97267.78;5050962;28;20047;-65
2022/07/07 00:05:38;;;;;;;2.75;1.58;;;;;;;17.59;79.79;97268.97;5049330;28;20104;-65
2022/07/07 00:08:04;;;;;;;6.20;1.83;;;;;;;17.48;79.57;97260.69;5051275;28;20439;-65
2022/07/07 00:10:29;;;;;;;6.30;2.00;;;;;;;17.29;79.83;97263.91;5050498;28;20025;-65
2022/07/07 00:12:55;;;;;;;5.95;1.98;;;;;;;16.99;83.79;97262.31;5050643;28;20051;-65
2022/07/07 00:15:20;;;;;;;2.80;1.80;;;;;;;16.10;89.54;97260.16;5050478;28;20743;-65
2022/07/07 00:17:46;;;;;;;5.65;1.95;;;;;;;16.11;92.00;97259.75;5050547;28;20448;-65
2022/07/07 00:20:12;;;;;;;5.15;1.95;;;;;;;16.23;90.56;97253.09;5050566;28;20056;-65
2022/07/07 00:22:37;;;;;;;4.15;1.85;;;;;;;16.21;90.56;97247.97;5050819;28;20033;-66
2022/07/07 00:25:04;;;;;;;2.92;1.50;;;;;;;16.03;91.64;97253.44;5032573;28;20025;-65
2022/07/07 00:27:30;;;;;;;6.32;2.40;;;;;;;15.98;91.30;97251.03;5050372;28;20029;-65
2022/07/07 00:29:55;;;;;;;2.67;1.63;;;;;;;16.08;93.35;97246.75;5050759;28;20119;-65
2022/07/07 00:32:20;;;;;;;5.13;1.92;;;;;;;16.06;91.53;97246.31;5051026;28;20064;-64
2022/07/07 00:34:46;;;;;;;11.13;1.95;;;;;;;16.01;90.95;97255.00;5050942;28;20063;-64
2022/07/07 00:37:11;;;;;;;2.97;1.92;;;;;;;16.07;93.02;97256.19;5051014;28;20068;-65
2022/07/07 00:39:37;;;;;;;6.45;1.67;;;;;;;16.10;92.60;97258.19;5051220;28;20025;-66
2022/07/07 00:42:02;;;;;;;3.67;1.75;;;;;;;16.36;90.16;97248.78;5043301;28;20465;-66
2022/07/07 00:44:28;;;;;;;4.22;1.92;;;;;;;16.48;90.19;97253.16;5039447;28;20037;-66
2022/07/07 00:46:54;;;;;;;2.30;1.60;;;;;;;16.53;90.34;97255.53;5049405;28;20116;-64
2022/07/07 00:49:21;;;;;;;4.60;1.83;;;;;;;16.54;87.65;97262.63;5042304;28;20036;-66
2022/07/07 00:51:47;;;;;;;2.90;1.90;;;;;;;16.54;87.70;97256.31;5049318;28;20090;-66
2022/07/07 00:54:13;;;;;;;2.83;1.60;;;;;;;16.50;87.54;97247.25;5041942;28;20067;-67
2022/07/07 00:56:39;;;;;;;5.28;1.60;;;;;;;16.52;88.94;97248.41;5042319;28;20103;-66
2022/07/07 00:59:08;;;;;;;5.40;1.80;;;;;;;16.64;88.40;97250.03;5045871;28;20078;-66
2022/07/07 01:01:40;;;;;;;5.20;2.00;;;;;;;16.71;85.30;97252.00;5043209;28;20033;-65
2022/07/07 01:04:08;;;;;;;3.80;1.98;;;;;;;16.74;85.17;97249.22;5035454;28;20052;-65
2022/07/07 01:06:34;;;;;;;4.95;2.00;;;;;;;16.53;82.30;97247.25;5036051;28;20033;-65
2022/07/07 01:09:00;;;;;;;5.53;2.00;;;;;;;16.46;83.75;97238.94;5049962;28;20069;-65
2022/07/07 01:11:27;;;;;;;2.92;1.77;;;;;;;16.47;83.99;97240.50;5044853;28;20367;-64
2022/07/07 01:13:52;;;;;;;5.40;1.80;;;;;;;16.45;83.11;97237.34;5040258;28;20040;-66
2022/07/07 01:16:17;;;;;;;3.97;2.20;;;;;;;16.28;83.59;97236.13;5045578;28;20025;-65
2022/07/07 01:18:44;;;;;;;3.22;1.98;;;;;;;15.89;89.42;97242.31;5034864;28;20025;-65
2022/07/07 01:21:13;;;;;;;7.43;2.35;;;;;;;15.51;93.50;97229.91;5034819;28;20367;-67
2022/07/07 01:23:38;;;;;;;5.70;2.17;;;;;;;15.36;99.80;97235.34;5043918;28;20064;-66
2022/07/07 01:26:04;;;;;;;7.18;2.80;;;;;;;15.51;97.35;97233.44;5049231;28;20454;-65
2022/07/07 01:28:29;;;;;;;4.65;2.40;;;;;;;15.63;90.77;97240.59;5053954;28;20037;-66
2022/07/07 01:30:58;;;;;;;2.97;2.20;;;;;;;15.62;90.57;97239.78;5045632;28;20029;-65
2022/07/07 01:33:23;;;;;;;3.30;1.85;;;;;;;15.72;90.85;97241.03;5036099;28;20025;-64
2022/07/07 01:35:49;;;;;;;4.75;2.42;;;;;;;15.43;92.86;97229.03;5033993;28;20060;-65
2022/07/07 01:38:14;;;;;;;3.92;2.05;;;;;;;15.23;94.61;97236.81;5033910;28;20064;-66
2022/07/07 01:40:40;;;;;;;3.25;1.90;;;;;;;15.23;93.90;97234.84;5033932;28;20044;-66
2022/07/07 01:43:06;;;;;;;3.13;1.88;;;;;;;15.52;93.10;97229.50;5034870;28;20026;-65
2022/07/07 01:45:31;;;;;;;3.45;1.75;;;;;;;15.79;90.62;97232.81;5052642;28;20039;-65
2022/07/07 01:47:57;;;;;;;5.63;2.50;;;;;;;15.77;88.64;97226.09;5057015;28;20032;-67
2022/07/07 01:50:23;;;;;;;9.27;2.33;;;;;;;15.54;89.20;97223.56;5065087;28;20049;-67
2022/07/07 01:52:48;;;;;;;8.02;2.10;;;;;;;15.53;90.65;97222.00;5061436;28;20033;-67
2022/07/07 01:55:13;;;;;;;4.68;2.05;;;;;;;15.63;86.90;97230.34;5059899;28;20358;-66
2022/07/07 01:57:39;;;;;;;5.38;1.90;;;;;;;15.62;85.07;97223.22;5066842;28;20059;-67
2022/07/07 02:00:05;;;;;;;4.55;1.92;;;;;;;15.59;84.22;97220.44;5070983;28;20060;-66
2022/07/07 02:02:30;;;;;;;5.35;1.95;;;;;;;15.78;87.50;97224.91;5062912;28;20029;-66
2022/07/07 02:04:56;;;;;;;6.97;2.13;;;;;;;16.00;85.37;97223.03;5069823;28;20374;-62
2022/07/07 02:07:21;;;;;;;3.92;1.63;;;;;;;16.12;82.44;97224.66;5043901;28;20032;-65
2022/07/07 02:09:47;;;;;;;2.70;1.63;;;;;;;16.05;81.38;97228.16;5033401;28;20064;-66
2022/07/07 02:12:12;;;;;;;8.85;2.13;;;;;;;16.09;80.21;97228.19;5036554;28;20413;-65
2022/07/07 02:14:37;;;;;;;4.38;1.75;;;;;;;16.00;81.63;97223.03;5050717;28;20035;-65
2022/07/07 02:17:03;;;;;;;3.63;2.00;;;;;;;16.01;83.46;97232.91;5041629;28;20074;-66
2022/07/07 02:19:29;;;;;;;2.63;1.73;;;;;;;16.07;82.86;97233.31;5041635;28;20033;-68
2022/07/07 02:21:54;;;;;;;4.53;2.10;;;;;;;16.11;82.45;97243.19;5033281;28;20041;-64
2022/07/07 02:24:19;;;;;;;4.93;1.67;;;;;;;16.05;82.40;97230.94;5046100;28;20115;-66
2022/07/07 02:26:45;;;;;;;3.83;1.75;;;;;;;16.09;81.53;97233.72;5045725;28;20031;-66
2022/07/07 02:29:10;;;;;;;4.22;1.70;;;;;;;16.10;79.59;97235.28;5044017;28;20037;-65
2022/07/07 02:31:35;;;;;;;2.78;1.63;;;;;;;16.17;78.15;97233.34;5033128;28;20033;-65
2022/07/07 02:34:01;;;;;;;3.10;1.77;;;;;;;16.10;77.45;97227.81;5032761;28;20104;-64
2022/07/07 02:36:27;;;;;;;4.82;1.95;;;;;;;15.96;78.18;97223.00;5033372;28;20393;-65
2022/07/07 02:38:53;;;;;;;2.75;1.58;;;;;;;15.96;77.66;97236.81;5044266;28;20847;-66
2022/07/07 02:41:19;;;;;;;4.13;2.03;;;;;;;15.91;77.23;97236.41;5059013;28;20055;-68
2022/07/07 02:43:44;;;;;;;3.83;1.73;;;;;;;15.80;79.54;97225.31;5047217;28;20030;-65
2022/07/07 02:46:10;;;;;;;5.63;1.48;;;;;;;15.87;77.03;97230.88;5048467;28;20043;-67
2022/07/07 02:48:35;;;;;;;3.00;1.83;;;;;;;15.51;78.67;97230.69;5052694;28;20025;-65
2022/07/07 02:51:01;;;;;;;3.08;1.52;;;;;;;15.79;77.92;97227.28;5052543;28;20104;-66
2022/07/07 02:53:27;;;;;;;3.92;1.55;;;;;;;15.87;76.75;97230.88;5044001;28;20506;-66
2022/07/07 02:55:52;;;;;;;5.78;1.98;;;;;;;15.88;76.93;97218.63;5038993;28;20040;-67
2022/07/07 02:58:22;;;;;;;4.80;1.95;;;;;;;15.81;77.48;97221.38;5043341;28;20104;-65
2022/07/07 03:00:48;;;;;;;6.43;1.60;;;;;;;15.58;78.19;97222.44;5044267;28;20079;-66
2022/07/07 03:03:14;;;;;;;6.03;1.92;;;;;;;15.52;78.47;97223.19;5035993;28;20047;-65
2022/07/07 03:05:40;;;;;;;4.60;1.77;;;;;;;15.51;78.81;97219.63;5032241;28;20033;-67
2022/07/07 03:08:06;;;;;;;7.00;1.67;;;;;;;15.73;78.38;97219.72;5032429;28;20112;-66
2022/07/07 03:10:31;;;;;;;4.38;1.70;;;;;;;15.55;79.25;97216.88;5031876;28;20120;-65
2022/07/07 03:12:56;;;;;;;4.50;1.83;;;;;;;15.28;80.24;97211.63;5043255;28;20492;-67
2022/07/07 03:15:22;;;;;;;2.78;1.50;;;;;;;15.10;80.32;97208.75;5036021;28;20120;-66
2022/07/07 03:17:49;;;;;;;4.35;1.70;;;;;;;14.92;82.89;97222.41;5039043;28;20037;-66
2022/07/07 03:20:17;;;;;;;4.88;1.63;;;;;;;14.15;90.11;97222.88;5031511;28;20402;-67
2022/07/07 03:22:43;;;;;;;3.70;2.20;;;;;;;14.01;93.08;97217.22;5038778;28;20540;-68
2022/07/07 03:25:09;;;;;;;9.52;2.47;;;;;;;14.09;94.47;97220.84;5040189;28;20045;-66
2022/07/07 03:27:35;;;;;;;9.20;2.35;;;;;;;14.04;95.59;97221.94;5040217;28;20710;-67
2022/07/07 03:30:03;;;;;;;4.43;2.38;;;;;;;13.89;97.91;97225.72;5043822;28;20047;-67
2022/07/07 03:32:29;;;;;;;8.50;2.17;;;;;;;13.94;99.25;97223.44;5051751;28;20033;-67
2022/07/07 03:34:54;;;;;;;5.05;2.50;;;;;;;14.16;98.95;97242.94;5051640;28;20094;-67
2022/07/07 03:37:19;;;;;;;4.78;2.42;;;;;;;14.30;98.24;97234.84;5051424;28;20114;-68
2022/07/07 03:39:45;;;;;;;4.70;2.42;;;;;;;14.43;98.28;97229.84;5050064;28;20028;-67
2022/07/07 03:42:10;;;;;;;4.30;2.30;;;;;;;14.45;98.40;97227.50;5043630;28;20041;-68
2022/07/07 03:44:35;;;;;;;6.97;2.30;;;;;;;14.60;98.99;97222.94;5039362;28;20033;-66
2022/07/07 03:47:01;;;;;;;6.80;2.40;;;;;;;14.58;97.66;97221.72;5056160;28;20045;-67
2022/07/07 03:49:26;;;;;;;3.45;1.92;;;;;;;14.29;99.97;97229.69;5048645;28;20044;-68
2022/07/07 03:51:52;;;;;;;4.07;2.10;;;;;;;14.31;100.00;97213.56;5051697;28;20051;-68
2022/07/07 03:54:18;;;;;;;4.53;2.33;;;;;;;14.31;99.96;97217.16;5042405;28;20111;-69
2022/07/07 03:56:43;;;;;;;5.35;2.22;;;;;;;14.61;97.89;97220.97;5042507;28;20037;-67
2022/07/07 03:59:09;;;;;;;5.53;2.22;;;;;;;14.80;95.26;97226.28;5035712;28;20029;-68
2022/07/07 04:01:36;;;;;;;4.40;2.28;;;;;;;14.93;93.70;97215.72;5035447;28;20398;-67
2022/07/07 04:04:02;;;;;;;5.22;1.90;;;;;;;14.87;94.58;97218.06;5039548;28;20088;-66
2022/07/07 04:06:30;;;;;;;5.38;2.00;;;;;;;14.95;94.86;97220.88;5031007;28;20033;-67
2022/07/07 04:08:55;;;;;;;4.55;1.80;;;;;;;15.04;94.11;97219.34;5037279;28;20029;-66
2022/07/07 04:11:21;;;;;;;7.13;1.90;;;;;;;14.99;92.20;97214.19;5047874;28;20040;-66
2022/07/07 04:13:46;;;;;;;9.90;2.13;;;;;;;14.72;92.91;97221.84;5043267;28;20025;-64
2022/07/07 04:16:12;;;;;;;6.22;2.25;;;;;;;14.47;93.48;97214.13;5066479;28;20435;-67
2022/07/07 04:18:37;;;;;;;4.65;2.35;;;;;;;14.32;94.16;97221.47;5068189;28;20029;-67
2022/07/07 04:21:02;;;;;;;3.60;2.22;;;;;;;14.44;94.25;97214.09;5049644;28;20469;-65
2022/07/07 04:23:28;;;;;;;6.13;1.90;;;;;;;14.60;92.31;97213.88;5052034;28;20032;-67
2022/07/07 04:25:53;;;;;;;7.00;2.35;;;;;;;14.72;92.50;97208.06;5051895;28;20037;-67
2022/07/07 04:28:19;;;;;;;5.55;2.13;;;;;;;14.53;97.54;97209.06;5044078;28;20033;-64
2022/07/07 04:30:44;;;;;;;5.43;2.75;;;;;;;13.49;100.00;97207.94;5052546;28;20425;-66
2022/07/07 04:33:10;;;;;;;6.13;2.65;;;;;;;12.81;100.00;97210.47;5055192;28;20036;-66
2022/07/07 04:35:35;;;;;;;9.20;3.28;;;;;;;12.79;100.00;97210.06;5055065;28;20033;-68
2022/07/07 04:38:01;;;;;;;8.40;3.15;;;;;;;12.87;100.00;97200.72;5048431;28;20039;-64
2022/07/07 04:40:26;;;;;;;5.35;2.80;;;;;;;12.90;100.00;97205.50;5068991;28;20116;-66
2022/07/07 04:42:52;;;;;;;6.15;2.88;;;;;;;13.17;100.00;97200.00;5061172;28;20037;-67
2022/07/07 04:45:17;;;;;;;9.35;2.90;;;;;;;13.53;100.00;97200.53;5066292;28;20052;-65
2022/07/07 04:47:43;;;;;;;4.18;2.80;;;;;;;14.00;100.00;97198.31;5060185;28;20112;-65
2022/07/07 04:50:09;;;;;;;4.50;2.40;;;;;;;14.84;100.00;97191.22;5051968;28;20037;-67
2022/07/07 04:52:39;;;;;;;5.05;2.63;;;;;;;15.12;97.68;97200.88;5065949;28;20033;-66
2022/07/07 04:55:05;;;;;;;4.45;2.28;;;;;;;16.16;92.65;97201.34;5058599;28;20146;-67
2022/07/07 04:57:32;;;;;;;4.30;2.08;;;;;;;18.00;80.08;97210.28;5065522;28;20084;-67
2022/07/07 04:59:58;;;;;;;7.60;1.98;;;;;;;19.67;70.79;97205.78;5056059;28;20021;-66
2022/07/07 05:02:23;;;;;;;6.32;2.22;;;;;;;20.34;64.39;97211.69;5087310;23;20036;-63
2022/07/07 05:04:49;;;;;;;4.75;1.50;;;;;;;20.24;63.59;97223.75;5064560;28;20041;-65
2022/07/07 05:07:16;;;;;;;3.63;1.90;;;;;;;20.87;61.05;97226.03;5060764;28;20117;-66
2022/07/07 05:09:41;;;;;;;1.98;1.42;;;;;;;22.06;56.63;97233.03;5043262;28;20033;-63
2022/07/07 05:12:07;;;;;;;2.17;1.20;;;;;;;22.81;53.76;97227.78;5031984;28;20393;-63
2022/07/07 05:14:32;;;;;;;8.20;1.75;;;;;;;22.43;54.39;97227.50;5013545;28;20034;-63
2022/07/07 05:16:59;;;;;;;1.98;1.10;;;;;;;23.11;52.37;97220.31;5014199;28;20041;-63
2022/07/07 05:19:25;;;;;;;4.55;1.70;;;;;;;23.57;49.25;97229.50;5014133;28;20068;-63
2022/07/07 05:21:50;;;;;;;6.35;1.85;;;;;;;23.30;49.20;97235.41;5014094;28;20065;-64
2022/07/07 05:24:16;;;;;;;6.00;1.35;;;;;;;22.90;50.15;97232.78;5014171;28;20029;-63
2022/07/07 05:26:41;;;;;;;6.63;1.33;;;;;;;22.89;49.40;97231.22;5013862;28;20468;-63
2022/07/07 05:29:07;;;;;;;4.80;1.30;;;;;;;22.53;50.75;97246.78;5013653;28;20046;-63
2022/07/07 05:31:32;;;;;;;3.90;1.70;;;;;;;21.82;51.90;97242.69;5014009;28;20109;-63
2022/07/07 05:33:58;;;;;;;4.85;1.33;;;;;;;21.18;54.47;97243.41;5013761;28;20106;-63
2022/07/07 05:36:23;;;;;;;3.17;1.65;;;;;;;20.67;55.87;97239.88;5013172;28;20497;-63
2022/07/07 05:38:50;;;;;;;2.85;1.45;;;;;;;19.79;58.12;97235.03;5028487;28;20022;-64
2022/07/07 05:41:15;;;;;;;7.80;1.95;;;;;;;19.35;60.34;97231.91;5013474;28;20038;-64
2022/07/07 05:43:41;;;;;;;5.57;2.08;;;;;;;19.80;60.76;97219.94;5015492;28;21511;-65
2022/07/07 05:46:06;;;;;;;8.05;1.63;;;;;;;21.72;56.06;97227.75;5016446;28;20069;-64
2022/07/07 05:48:32;;;;;;;3.78;1.45;;;;;;;23.48;48.37;97220.97;5004428;28;20048;-66
2022/07/07 05:50:57;;;;;;;3.65;1.17;;;;;;;24.72;46.31;97217.81;5021590;28;20053;-66
2022/07/07 05:53:23;;;;;;;5.57;2.35;;;;;;;25.84;41.98;97216.84;5007706;28;20046;-64
2022/07/07 05:55:48;;;;;;;3.33;1.40;;;;;;;25.93;37.85;97211.34;5022905;28;20578;-64
2022/07/07 05:58:14;;;;;;;5.90;1.38;;;;;;;26.61;36.85;97224.84;5016725;28;20090;-64
2022/07/07 06:00:40;;;;;;;3.92;0.85;;;;;;;28.00;34.89;97221.03;5013840;28;20123;-64
2022/07/07 06:03:05;;;;;;;2.45;0.90;;;;;;;27.19;35.44;97223.28;5017673;28;20102;-63
2022/07/07 06:05:31;;;;;;;1.95;0.80;;;;;;;28.49;33.73;97224.06;5021781;28;20378;-64
2022/07/07 06:07:56;;;;;;;2.30;0.90;;;;;;;30.28;31.02;97214.25;5021278;28;20045;-64
2022/07/07 06:10:21;;;;;;;4.53;0.93;;;;;;;29.80;30.77;97217.22;5014390;28;22207;-64
2022/07/07 06:12:48;;;;;;;4.78;2.40;;;;;;;29.56;31.88;97212.38;5001617;28;20048;-64
2022/07/07 06:15:14;;;;;;;4.63;1.50;;;;;;;30.20;31.04;97210.28;4990115;28;20414;-64
2022/07/07 06:17:40;;;;;;;5.65;1.05;;;;;;;28.89;32.46;97214.50;5010047;28;20056;-64
2022/07/07 06:20:07;;;;;;;5.45;1.13;;;;;;;28.23;34.19;97218.78;5016748;28;20061;-63
2022/07/07 06:22:32;;;;;;;3.10;0.90;;;;;;;28.45;34.39;97206.53;4995836;28;20030;-64
2022/07/07 06:24:58;;;;;;;3.83;1.00;;;;;;;30.44;31.67;97213.00;5020475;28;20525;-65
2022/07/07 06:27:23;;;;;;;5.45;2.80;;;;;;;31.05;30.27;97212.41;5011238;28;20037;-64
2022/07/07 06:29:49;;;;;;;6.47;1.27;;;;;;;30.57;30.37;97229.66;5019609;28;20055;-63
2022/07/07 06:32:15;;;;;;;6.05;2.55;;;;;;;30.35;31.76;97228.00;5003614;28;20739;-64
2022/07/07 06:34:41;;;;;;;3.92;1.50;;;;;;;29.79;32.20;97232.63;5018638;28;20045;-64
2022/07/07 06:37:07;;;;;;;4.32;1.70;;;;;;;30.44;31.97;97229.97;5028707;28;20064;-63
2022/07/07 06:39:33;;;;;;;5.03;1.33;;;;;;;31.16;30.93;97234.44;5030114;28;20493;-65
2022/07/07 06:41:58;;;;;;;2.95;1.10;;;;;;;30.80;31.29;97225.13;5022380;28;20041;-64
2022/07/07 06:44:24;;;;;;;5.38;1.20;;;;;;;30.46;32.60;97225.38;5014914;28;20495;-64
2022/07/07 06:46:49;;;;;;;8.15;1.60;;;;;;;31.34;30.30;97234.16;5012692;28;20475;-64
2022/07/07 06:49:15;;;;;;;3.10;1.30;;;;;;;30.20;32.36;97227.22;5014705;28;20049;-65
2022/07/07 06:51:40;;;;;;;4.88;1.00;;;;;;;31.58;30.71;97231.13;5021049;28;20855;-64
2022/07/07 06:54:06;;;;;;;3.47;1.45;;;;;;;32.04;29.41;97243.03;5030238;28;20049;-64
2022/07/07 06:56:31;;;;;;;5.18;1.27;;;;;;;32.39;28.31;97243.63;4984082;28;20041;-64
2022/07/07 06:58:56;;;;;;;4.43;1.40;;;;;;;31.13;30.60;97233.34;5018984;28;20045;-64
2022/07/07 07:01:22;;;;;;;5.65;1.23;;;;;;;31.92;30.08;97233.59;5012759;28;20486;-65
2022/07/07 07:03:47;;;;;;;7.47;1.55;;;;;;;32.47;28.92;97237.50;5020078;28;20044;-66
2022/07/07 07:06:14;;;;;;;5.15;0.95;;;;;;;30.15;32.57;97228.66;5015500;28;20045;-64
2022/07/07 07:08:39;;;;;;;5.65;0.95;;;;;;;29.87;32.72;97228.94;5019526;28;20056;-64
2022/07/07 07:11:05;;;;;;;5.72;1.00;;;;;;;29.91;33.90;97228.75;5006720;28;20041;-62
2022/07/07 07:13:31;;;;;;;4.50;1.33;;;;;;;29.55;33.21;97233.41;5016965;28;20045;-64
2022/07/07 07:15:56;;;;;;;4.35;0.95;;;;;;;30.04;33.29;97243.38;5018573;28;20445;-64
2022/07/07 07:18:22;;;;;;;2.47;1.00;;;;;;;29.66;33.06;97241.31;5005969;28;20710;-66
2022/07/07 07:20:47;;;;;;;3.97;1.38;;;;;;;29.57;33.62;97239.34;5019028;28;20680;-66
2022/07/07 07:23:12;;;;;;;5.10;1.05;;;;;;;30.34;32.61;97239.78;5013495;28;20037;-66
2022/07/07 07:25:38;;;;;;;4.50;1.23;;;;;;;30.38;32.32;97241.16;5016902;28;20069;-67
2022/07/07 07:28:03;;;;;;;4.28;1.33;;;;;;;30.45;31.02;97246.44;4994716;28;20034;-63
2022/07/07 07:30:29;;;;;;;3.47;1.20;;;;;;;32.06;29.62;97244.06;5000084;28;20038;-65
2022/07/07 07:32:54;;;;;;;4.57;1.15;;;;;;;30.59;30.74;97238.41;5001005;28;20041;-64
2022/07/07 07:35:20;;;;;;;4.05;1.52;;;;;;;31.66;29.36;97234.34;4993128;28;20076;-65
2022/07/07 07:37:45;;;;;;;4.80;1.52;;;;;;;29.31;32.66;97239.03;5003560;28;20037;-65
2022/07/07 07:40:12;;;;;;;3.42;1.30;;;;;;;30.75;31.36;97228.66;5006327;28;20037;-65
2022/07/07 07:42:38;;;;;;;3.00;1.15;;;;;;;31.52;29.73;97218.97;5017478;28;20037;-65
2022/07/07 07:45:11;;;;;;;3.20;1.13;;;;;;;29.74;31.65;97217.88;5015849;28;20702;-63
2022/07/07 07:47:44;;;;;;;3.92;1.23;;;;;;;29.92;30.64;97219.00;5019851;28;20041;-66
2022/07/07 07:50:12;;;;;;;4.25;1.20;;;;;;;29.80;31.32;97223.66;5013843;28;20045;-64
2022/07/07 07:52:42;;;;;;;5.35;1.23;;;;;;;30.15;30.60;97222.25;5015935;28;20053;-65
2022/07/07 07:55:10;;;;;;;6.93;1.48;;;;;;;30.71;29.82;97217.53;5015420;28;20046;-65
2022/07/07 07:57:36;;;;;;;5.68;1.52;;;;;;;29.85;31.28;97219.38;5015584;28;20518;-65
2022/07/07 08:00:06;;;;;;;3.15;1.50;;;;;;;29.54;32.57;97217.72;5023065;28;20045;-65
2022/07/07 08:02:31;;;;;;;7.85;1.60;;;;;;;28.07;34.73;97213.50;5010973;28;20050;-64
2022/07/07 08:04:57;;;;;;;7.30;3.17;;;;;;;26.74;36.55;97214.28;5020077;28;20183;-63
2022/07/07 08:07:22;;;;;;;7.15;1.92;;;;;;;27.11;36.38;97205.94;5006776;28;20608;-64
2022/07/07 08:09:47;;;;;;;3.63;1.65;;;;;;;27.45;35.14;97207.72;5011139;28;20056;-64
2022/07/07 08:12:13;;;;;;;3.25;1.35;;;;;;;25.58;38.69;97214.16;5009851;28;20088;-64
2022/07/07 08:14:38;;;;;;;4.25;1.27;;;;;;;25.54;38.82;97205.09;5019817;28;20107;-64
2022/07/07 08:17:04;;;;;;;6.63;1.75;;;;;;;25.98;38.31;97212.78;5015987;28;20038;-65
2022/07/07 08:19:30;;;;;;;4.32;1.23;;;;;;;25.49;38.10;97202.88;5007005;28;20042;-64
2022/07/07 08:21:55;;;;;;;4.78;1.33;;;;;;;25.49;38.87;97195.22;5010048;28;20052;-64
2022/07/07 08:24:21;;;;;;;6.75;2.05;;;;;;;25.24;38.36;97195.28;5016812;28;20407;-64
2022/07/07 08:26:46;;;;;;;6.38;3.55;;;;;;;25.13;38.65;97201.28;5030934;28;20057;-65
2022/07/07 08:29:13;;;;;;;4.10;1.65;;;;;;;24.60;39.22;97202.56;5018167;28;20048;-65
2022/07/07 08:31:38;;;;;;;3.97;1.52;;;;;;;24.33;40.80;97202.97;5020431;28;20132;-64
2022/07/07 08:34:03;;;;;;;7.10;3.22;;;;;;;23.91;41.86;97208.59;5011969;28;20407;-65
2022/07/07 08:36:30;;;;;;;4.00;2.13;;;;;;;24.18;41.78;97207.44;5031945;28;20033;-63
2022/07/07 08:38:56;;;;;;;4.97;2.13;;;;;;;24.64;40.80;97198.88;5020176;28;20042;-64
2022/07/07 08:41:22;;;;;;;3.55;1.30;;;;;;;24.13;40.60;97205.19;5019584;28;20050;-64
2022/07/07 08:43:48;;;;;;;6.63;1.55;;;;;;;23.35;41.49;97206.91;5021820;28;20077;-64
2022/07/07 08:46:14;;;;;;;6.57;1.50;;;;;;;23.64;41.27;97201.34;5001638;28;20042;-64
2022/07/07 08:48:39;;;;;;;3.60;1.13;;;;;;;23.83;41.83;97208.03;5018962;28;20129;-64
2022/07/07 08:51:11;;;;;;;6.70;1.60;;;;;;;24.06;40.68;97209.00;4995508;28;20125;-65
2022/07/07 08:53:41;;;;;;;3.67;1.20;;;;;;;24.48;40.99;97211.72;5020172;28;20045;-64
2022/07/07 08:56:08;;;;;;;4.80;2.03;;;;;;;24.84;40.29;97209.84;5008698;28;20068;-65
2022/07/07 08:58:37;;;;;;;2.85;1.15;;;;;;;24.42;39.14;97210.72;5013012;28;21478;-63
2022/07/07 09:01:06;;;;;;;6.10;1.10;;;;;;;23.66;40.48;97210.09;5005177;28;20145;-64
2022/07/07 09:03:32;;;;;;;3.22;1.60;;;;;;;23.64;40.13;97218.13;4997915;28;20041;-63
2022/07/07 09:05:59;;;;;;;7.28;1.38;;;;;;;24.30;40.59;97215.06;5007784;28;20484;-65
2022/07/07 09:08:26;;;;;;;5.65;1.70;;;;;;;24.50;40.62;97214.06;5000847;28;20149;-65
2022/07/07 09:10:52;;;;;;;3.15;1.30;;;;;;;24.78;39.86;97215.22;5011550;28;20049;-65
2022/07/07 09:13:26;;;;;;;4.65;1.75;;;;;;;24.59;40.78;97215.00;5009956;28;20041;-64
2022/07/07 09:15:58;;;;;;;4.75;1.42;;;;;;;24.49;41.79;97227.31;5012017;28;20216;-64
2022/07/07 09:18:31;;;;;;;6.80;1.88;;;;;;;24.48;40.35;97224.94;5002535;28;20673;-64
2022/07/07 09:20:58;;;;;;;6.10;1.60;;;;;;;24.05;41.02;97230.56;5016107;28;20131;-65
2022/07/07 09:23:24;;;;;;;4.18;1.40;;;;;;;24.12;41.79;97237.22;5004403;28;20049;-66
2022/07/07 09:25:49;;;;;;;4.45;1.15;;;;;;;24.39;39.51;97228.41;5015363;28;20045;-65
2022/07/07 09:28:15;;;;;;;3.80;1.50;;;;;;;24.62;39.66;97230.13;5003583;28;20089;-65
2022/07/07 09:30:45;;;;;;;5.60;1.13;;;;;;;24.75;38.45;97241.34;5007155;28;20074;-64
2022/07/07 09:33:12;;;;;;;8.48;1.55;;;;;;;24.46;39.47;97244.22;5004483;28;20033;-63
2022/07/07 09:38:24;;;;;;;4.20;1.42;;;;;;;24.85;37.91;97240.22;5004062;28;20141;-64
2022/07/07 09:41:00;;;;;;;6.80;1.10;;;;;;;24.45;39.50;97237.81;5006714;28;20049;-63
2022/07/07 09:43:31;;;;;;;6.38;1.73;;;;;;;24.50;39.20;97236.47;5014080;28;20088;-63
2022/07/07 09:46:36;;;;;;;8.45;1.90;;;;;;;23.81;42.36;97246.06;5015289;28;20414;-63
2022/07/07 09:49:02;;;;;;;55.35;5.07;;;;;;;24.03;40.80;97251.84;5005912;28;20056;-65
2022/07/07 09:51:32;;;;;;;3.40;1.20;;;;;;;23.94;39.61;97248.91;4995774;28;20050;-65
2022/07/07 09:54:08;;;;;;;3.95;1.27;;;;;;;24.21;40.27;97245.72;5010155;28;20597;-61
2022/07/07 09:56:41;;;;;;;4.15;1.05;;;;;;;24.23;39.84;97241.25;5017333;28;20088;-65
2022/07/07 09:59:15;;;;;;;5.18;1.13;;;;;;;24.63;38.73;97239.31;5008626;28;20056;-66
2022/07/07 10:01:45;;;;;;;5.43;1.52;;;;;;;24.99;38.41;97239.75;5021792;28;20038;-65
2022/07/07 10:04:22;;;;;;;3.58;1.20;;;;;;;25.66;37.53;97223.91;5014368;28;20081;-65
2022/07/07 10:06:48;;;;;;;5.18;1.88;;;;;;;25.87;37.42;97227.94;5000932;28;20116;-65
2022/07/07 10:09:24;;;;;;;3.30;1.25;;;;;;;25.90;37.29;97218.63;4995755;28;20046;-65
2022/07/07 10:11:51;;;;;;;11.82;2.72;;;;;;;25.65;37.93;97221.53;5001652;28;20038;-65
2022/07/07 10:14:27;;;;;;;4.28;1.50;;;;;;;25.17;39.08;97230.75;4997074;28;20078;-65
2022/07/07 10:16:54;;;;;;;3.13;1.30;;;;;;;24.56;39.26;97235.50;5020351;28;20398;-65
2022/07/07 10:19:22;;;;;;;4.43;1.27;;;;;;;24.36;41.34;97238.50;5007440;28;20087;-65
2022/07/07 10:21:50;;;;;;;4.97;1.77;;;;;;;24.20;40.78;97241.34;5029703;28;20075;-65
2022/07/07 10:24:18;;;;;;;3.85;1.38;;;;;;;24.54;40.59;97231.56;5020311;28;20041;-64
2022/07/07 10:26:49;;;;;;;4.93;1.63;;;;;;;24.81;40.42;97231.13;5014949;28;20469;-64
2022/07/07 10:29:15;;;;;;;2.90;1.10;;;;;;;24.76;40.27;97234.50;5011574;28;20292;-65
2022/07/07 10:31:41;;;;;;;4.38;1.42;;;;;;;25.23;39.31;97233.75;5021028;28;20120;-65
2022/07/07 10:34:11;;;;;;;3.10;1.02;;;;;;;25.44;38.48;97232.25;5015511;28;20149;-65
2022/07/07 10:36:49;;;;;;;5.22;1.38;;;;;;;25.27;38.74;97231.66;5022910;28;20711;-66
2022/07/07 10:39:26;;;;;;;4.65;1.30;;;;;;;23.96;40.56;97238.84;4996516;28;20030;-66
2022/07/07 10:42:01;;;;;;;7.30;1.65;;;;;;;23.79;42.66;97231.72;4998378;28;20038;-66
2022/07/07 10:44:27;;;;;;;6.97;1.58;;;;;;;23.85;42.78;97222.34;4997586;28;20316;-67
2022/07/07 10:47:19;;;;;;;7.90;1.27;;;;;;;23.44;43.02;97214.69;5019234;28;20046;-66
2022/07/07 10:49:51;;;;;;;5.15;1.30;;;;;;;23.54;42.25;97208.03;4997764;28;20110;-64
2022/07/07 10:52:18;;;;;;;2.70;1.27;;;;;;;23.82;42.30;97211.25;4997305;28;20452;-64
2022/07/07 10:54:59;;;;;;;6.85;1.50;;;;;;;23.60;42.58;97191.50;5020026;28;20071;-66
2022/07/07 10:57:38;;;;;;;2.80;1.20;;;;;;;23.81;43.56;97201.31;5028499;28;20430;-66
2022/07/07 11:00:15;;;;;;;8.65;1.35;;;;;;;24.41;41.79;97195.16;5007918;28;20561;-67
2022/07/07 11:03:07;;;;;;;4.88;1.20;;;;;;;24.52;43.28;97186.41;5006750;28;20065;-67
2022/07/07 11:05:33;;;;;;;6.75;1.10;;;;;;;24.45;41.44;97198.63;5009716;28;20518;-66
2022/07/07 11:07:59;;;;;;;5.30;1.55;;;;;;;24.76;41.20;97195.28;5019566;28;20041;-64
2022/07/07 11:10:36;;;;;;;4.10;1.50;;;;;;;24.95;41.00;97210.28;5015187;28;20083;-65
2022/07/07 11:13:28;;;;;;;5.00;1.45;;;;;;;25.08;39.95;97219.44;5011648;28;20051;-65
2022/07/07 11:16:21;;;;;;;2.42;1.27;;;;;;;25.54;40.24;97207.91;5029573;28;20041;-65
2022/07/07 11:18:50;;;;;;;7.70;1.85;;;;;;;24.93;40.70;97212.75;5000323;28;20121;-65
2022/07/07 11:21:16;;;;;;;4.57;1.20;;;;;;;24.82;39.98;97218.69;5013610;28;20048;-66
2022/07/07 11:23:55;;;;;;;4.85;1.13;;;;;;;25.18;39.37;97228.72;5039286;28;20037;-66
2022/07/07 11:26:25;;;;;;;3.70;1.30;;;;;;;25.76;39.00;97228.31;5034788;28;20193;-66
2022/07/07 11:28:53;;;;;;;5.00;1.25;;;;;;;25.50;38.39;97229.69;5012882;28;20046;-65
2022/07/07 11:31:18;;;;;;;2.65;1.30;;;;;;;25.08;38.24;97232.66;5013564;28;20045;-65
2022/07/07 11:33:56;;;;;;;2.30;1.20;;;;;;;24.88;40.41;97222.50;5016125;28;20637;-64
2022/07/07 11:36:25;;;;;;;4.68;1.17;;;;;;;25.37;39.28;97219.28;5013804;28;20409;-69